Time;durP1;ratioP1;P1;durP2;ratioP2;P2;SDS_P1;SDS_P2;PMS_P1;PMS_P2;Temp;Humidity;BMP_temperature;BMP_pressure;BME280_temperature;BME280_humidity;BME280_pressure;Samples;Min_cycle;Max_cycle;Signal;HPM_P1;HPM_P2
2023/11/30 00:00:52;;;;;;;3.97;3.67;;;-0.20;99.90;;;;;;5075915;28;20211;-63
2023/11/30 00:03:18;;;;;;;4.10;3.80;;;-0.20;99.90;;;;;;5067213;28;20302;-64
2023/11/30 00:05:45;;;;;;;4.73;3.97;;;-0.30;99.90;;;;;;5067355;28;20335;-63
2023/11/30 00:08:12;;;;;;;4.00;3.70;;;-0.20;99.90;;;;;;5066775;28;20330;-64
2023/11/30 00:10:41;;;;;;;4.20;3.80;;;-0.30;99.90;;;;;;5066498;28;20249;-64
2023/11/30 00:13:07;;;;;;;3.77;3.47;;;-0.30;99.90;;;;;;5067323;28;20294;-63
2023/11/30 00:15:35;;;;;;;4.53;4.23;;;-0.30;99.90;;;;;;5075123;28;20266;-64
2023/11/30 00:18:01;;;;;;;5.10;4.70;;;-0.30;99.90;;;;;;5087127;28;20249;-63
2023/11/30 00:20:28;;;;;;;4.83;4.43;;;-0.30;99.90;;;;;;5087510;28;20237;-63
2023/11/30 00:22:55;;;;;;;4.77;4.40;;;-0.30;99.90;;;;;;5077884;28;20255;-64
2023/11/30 00:25:22;;;;;;;4.77;4.40;;;-0.30;99.90;;;;;;5066744;28;20299;-64
2023/11/30 00:27:51;;;;;;;4.80;4.40;;;-0.40;99.90;;;;;;5068071;28;20744;-63
2023/11/30 00:30:18;;;;;;;5.40;4.90;;;-0.40;99.90;;;;;;5067250;28;20202;-64
2023/11/30 00:32:45;;;;;;;5.43;4.90;;;-0.50;99.90;;;;;;5081463;28;20246;-64
2023/11/30 00:35:12;;;;;;;5.03;4.60;;;-0.50;99.90;;;;;;5067611;28;20644;-63
2023/11/30 00:37:39;;;;;;;5.43;4.93;;;-0.50;99.90;;;;;;5066806;28;20294;-64
2023/11/30 00:40:08;;;;;;;5.50;5.00;;;-0.60;99.90;;;;;;5066831;28;20241;-65
2023/11/30 00:42:35;;;;;;;6.10;5.50;;;-0.60;99.90;;;;;;5077751;28;20213;-64
2023/11/30 00:45:03;;;;;;;6.03;5.53;;;-0.70;99.90;;;;;;5086686;28;20209;-64
2023/11/30 00:47:30;;;;;;;5.87;5.37;;;-0.70;99.90;;;;;;5073983;28;20200;-64
2023/11/30 00:49:57;;;;;;;5.27;4.83;;;-0.70;99.90;;;;;;5066927;28;20295;-63
2023/11/30 00:52:24;;;;;;;5.33;4.83;;;-0.80;99.90;;;;;;5071317;28;20310;-64
2023/11/30 00:54:51;;;;;;;6.40;5.80;;;-0.80;99.90;;;;;;5095044;28;20245;-64
2023/11/30 00:57:18;;;;;;;6.00;5.47;;;-0.90;99.90;;;;;;5107021;28;20284;-64
2023/11/30 00:59:44;;;;;;;5.40;4.97;;;-0.90;99.90;;;;;;5106718;28;20872;-64
2023/11/30 01:02:13;;;;;;;6.00;5.37;;;-0.90;99.90;;;;;;5106859;28;20865;-64
2023/11/30 01:04:42;;;;;;;5.63;5.13;;;-0.80;99.90;;;;;;5106738;28;20852;-64
2023/11/30 01:07:09;;;;;;;5.70;5.20;;;-0.80;99.90;;;;;;5099124;28;20199;-64
2023/11/30 01:09:39;;;;;;;6.97;5.83;;;-0.90;99.90;;;;;;5086287;28;20291;-64
2023/11/30 01:12:06;;;;;;;7.10;5.93;;;-0.90;99.90;;;;;;5086523;28;20207;-64
2023/11/30 01:14:33;;;;;;;11.53;7.10;;;-0.90;99.90;;;;;;5086209;28;20576;-64
2023/11/30 01:17:00;;;;;;;13.57;8.27;;;-1.00;99.90;;;;;;5086669;28;20633;-64
2023/11/30 01:19:28;;;;;;;9.60;7.33;;;-1.10;99.90;;;;;;5086418;28;20814;-64
2023/11/30 01:21:56;;;;;;;6.67;6.03;;;-1.10;99.90;;;;;;5086542;28;20216;-64
2023/11/30 01:24:23;;;;;;;6.60;5.87;;;-1.10;99.90;;;;;;5070737;28;20692;-64
2023/11/30 01:26:50;;;;;;;6.57;5.90;;;-1.20;99.90;;;;;;5078536;28;20299;-64
2023/11/30 01:29:17;;;;;;;5.80;5.30;;;-1.10;99.90;;;;;;5090911;28;20297;-64
2023/11/30 01:31:44;;;;;;;5.57;5.07;;;-1.20;99.90;;;;;;5090543;28;20206;-64
2023/11/30 01:34:11;;;;;;;5.87;5.37;;;-1.10;99.90;;;;;;5090334;28;20782;-64
2023/11/30 01:36:40;;;;;;;5.70;5.10;;;-1.20;99.90;;;;;;5090255;28;20283;-64
2023/11/30 01:39:07;;;;;;;5.60;5.10;;;-1.20;99.90;;;;;;5090256;28;20552;-64
2023/11/30 01:41:37;;;;;;;6.17;5.60;;;-1.20;99.90;;;;;;5090095;28;20718;-64
2023/11/30 01:44:04;;;;;;;6.50;5.90;;;-1.20;99.90;;;;;;5089988;28;20666;-65
2023/11/30 01:46:32;;;;;;;6.40;5.80;;;-1.30;99.90;;;;;;5089466;28;20680;-64
2023/11/30 01:48:59;;;;;;;6.57;5.87;;;-1.30;99.90;;;;;;5090610;28;20661;-64
2023/11/30 01:51:27;;;;;;;6.30;5.70;;;-1.40;99.90;;;;;;5089645;28;20205;-64
2023/11/30 01:53:59;;;;;;;6.80;5.47;;;-1.40;99.90;;;;;;5090055;28;20221;-64
2023/11/30 01:56:26;;;;;;;5.70;5.20;;;-1.30;99.90;;;;;;5090122;28;20691;-64
2023/11/30 01:58:53;;;;;;;6.27;5.67;;;-1.40;99.90;;;;;;5090053;28;20314;-64
2023/11/30 02:01:20;;;;;;;6.27;5.67;;;-1.40;99.90;;;;;;5089923;28;20241;-64
2023/11/30 02:03:47;;;;;;;5.73;5.23;;;-1.40;99.90;;;;;;5089389;28;20664;-64
2023/11/30 02:06:16;;;;;;;6.17;5.57;;;-1.50;99.90;;;;;;5089501;28;20684;-64
2023/11/30 02:08:43;;;;;;;6.27;5.67;;;-1.50;99.90;;;;;;5089324;28;20310;-64
2023/11/30 02:11:11;;;;;;;6.23;5.63;;;-1.50;99.90;;;;;;5089892;28;20317;-64
2023/11/30 02:13:38;;;;;;;5.80;5.30;;;-1.50;99.90;;;;;;5090069;28;20297;-64
2023/11/30 02:16:05;;;;;;;6.07;5.50;;;-1.60;99.90;;;;;;5089071;28;20202;-64
2023/11/30 02:18:32;;;;;;;6.37;5.77;;;-1.40;99.90;;;;;;5089819;28;20238;-64
2023/11/30 02:20:59;;;;;;;6.50;5.80;;;-1.40;99.90;;;;;;5089543;28;20256;-64
2023/11/30 02:23:27;;;;;;;6.00;5.50;;;-1.30;99.90;;;;;;5089003;28;20700;-64
2023/11/30 02:25:54;;;;;;;6.70;6.00;;;-1.30;99.90;;;;;;5087635;28;20293;-64
2023/11/30 02:28:21;;;;;;;6.70;5.50;;;-1.40;99.90;;;;;;5089581;28;20298;-64
2023/11/30 02:30:49;;;;;;;7.20;5.43;;;-1.40;99.90;;;;;;5088999;28;20328;-64
2023/11/30 02:33:16;;;;;;;6.67;6.07;;;-1.30;99.90;;;;;;5088760;28;20839;-64
2023/11/30 02:35:43;;;;;;;6.50;5.70;;;-1.30;99.90;;;;;;5089183;28;20237;-64
2023/11/30 02:38:10;;;;;;;6.53;5.93;;;-1.20;99.90;;;;;;5088565;28;20708;-63
2023/11/30 02:40:39;;;;;;;6.23;5.63;;;-1.20;99.90;;;;;;5084888;28;20285;-64
2023/11/30 02:43:06;;;;;;;6.33;5.73;;;-1.20;99.90;;;;;;5069076;28;20242;-64
2023/11/30 02:45:33;;;;;;;6.23;5.60;;;-1.20;99.90;;;;;;5068883;28;20743;-64
2023/11/30 02:47:59;;;;;;;5.93;5.43;;;-1.10;99.90;;;;;;5069641;28;20282;-64
2023/11/30 02:50:25;;;;;;;6.10;5.50;;;-1.10;99.90;;;;;;5069886;28;20299;-64
2023/11/30 02:52:53;;;;;;;6.00;5.17;;;-1.10;99.90;;;;;;5077030;28;20207;-64
2023/11/30 02:55:20;;;;;;;6.37;5.77;;;-1.10;99.90;;;;;;5088740;28;20577;-64
2023/11/30 02:57:48;;;;;;;7.20;6.00;;;-1.10;99.90;;;;;;5088689;28;20203;-64
2023/11/30 03:00:16;;;;;;;6.07;5.47;;;-1.10;99.90;;;;;;5088879;28;20329;-64
2023/11/30 03:02:43;;;;;;;6.00;5.40;;;-1.10;99.90;;;;;;5088703;28;20294;-64
2023/11/30 03:05:10;;;;;;;5.70;5.20;;;-1.20;99.90;;;;;;5089193;28;20289;-65
2023/11/30 03:07:37;;;;;;;6.30;5.70;;;-1.30;99.90;;;;;;5088361;28;20242;-65
2023/11/30 03:10:04;;;;;;;7.93;5.60;;;-1.30;99.90;;;;;;5088784;28;20869;-64
2023/11/30 03:12:31;;;;;;;6.43;5.80;;;-1.30;99.90;;;;;;5088736;28;20296;-65
2023/11/30 03:14:59;;;;;;;7.67;6.17;;;-1.30;99.90;;;;;;5088633;28;20290;-65
2023/11/30 03:17:26;;;;;;;6.33;5.70;;;-1.30;99.90;;;;;;5088159;28;20878;-64
2023/11/30 03:19:53;;;;;;;6.30;5.70;;;-1.40;99.90;;;;;;5088193;28;20239;-64
2023/11/30 03:22:20;;;;;;;6.80;5.37;;;-1.40;99.90;;;;;;5087927;28;20301;-64
2023/11/30 03:24:47;;;;;;;5.83;5.33;;;-1.30;99.90;;;;;;5088188;28;20306;-68
2023/11/30 03:27:13;;;;;;;6.43;5.83;;;-1.30;99.90;;;;;;5088620;28;20198;-64
2023/11/30 03:29:41;;;;;;;7.97;6.70;;;-1.30;99.90;;;;;;5088258;28;20253;-64
2023/11/30 03:32:10;;;;;;;7.47;6.77;;;-1.30;99.90;;;;;;5081347;28;20199;-64
2023/11/30 03:34:39;;;;;;;7.00;6.03;;;-1.30;99.90;;;;;;5066156;28;20204;-64
2023/11/30 03:37:06;;;;;;;5.77;5.23;;;-1.20;99.90;;;;;;5065679;28;20297;-64
2023/11/30 03:39:33;;;;;;;6.57;5.70;;;-1.20;99.90;;;;;;5076811;28;20319;-64
2023/11/30 03:42:00;;;;;;;5.87;5.37;;;-1.20;99.90;;;;;;5086426;28;20733;-64
2023/11/30 03:44:27;;;;;;;7.33;6.60;;;-1.20;99.90;;;;;;5076365;28;20203;-64
2023/11/30 03:46:53;;;;;;;6.90;6.20;;;-1.20;99.90;;;;;;5085652;28;20668;-64
2023/11/30 03:49:22;;;;;;;7.30;6.47;;;-1.20;99.90;;;;;;5085931;28;20285;-64
2023/11/30 03:51:49;;;;;;;6.17;5.57;;;-1.20;99.90;;;;;;5078895;28;20496;-64
2023/11/30 03:54:16;;;;;;;8.10;6.03;;;-1.20;99.90;;;;;;5065919;28;20477;-64
2023/11/30 03:56:43;;;;;;;6.57;5.97;;;-1.20;99.90;;;;;;5065385;28;20262;-64
2023/11/30 03:59:13;;;;;;;7.97;6.60;;;-1.20;99.90;;;;;;5075798;28;20238;-64
2023/11/30 04:01:40;;;;;;;7.27;6.57;;;-1.20;99.90;;;;;;5084654;28;20231;-64
2023/11/30 04:04:07;;;;;;;7.37;6.50;;;-1.20;99.90;;;;;;5084927;28;20736;-64
2023/11/30 04:06:35;;;;;;;7.73;6.93;;;-1.20;99.90;;;;;;5087623;28;20641;-64
2023/11/30 04:09:02;;;;;;;9.07;7.37;;;-1.30;99.90;;;;;;5066073;28;20325;-64
2023/11/30 04:11:29;;;;;;;8.67;7.60;;;-1.30;99.90;;;;;;5064927;28;20672;-64
2023/11/30 04:14:05;;;;;;;9.50;6.97;;;-1.30;99.90;;;;;;5065814;28;20762;-64
2023/11/30 04:16:32;;;;;;;8.80;7.13;;;-1.30;99.90;;;;;;5082898;28;20218;-64
2023/11/30 04:19:02;;;;;;;9.83;6.70;;;-1.30;99.90;;;;;;5085719;28;20346;-64
2023/11/30 04:21:29;;;;;;;9.97;7.10;;;-1.30;99.90;;;;;;5086201;28;20712;-64
2023/11/30 04:23:57;;;;;;;8.17;6.70;;;-1.40;99.90;;;;;;5085936;28;20293;-64
2023/11/30 04:26:24;;;;;;;6.87;6.17;;;-1.40;99.90;;;;;;5086632;28;20210;-64
2023/11/30 04:28:51;;;;;;;7.30;6.60;;;-1.40;99.90;;;;;;5086059;28;20203;-64
2023/11/30 04:31:18;;;;;;;6.80;6.20;;;-1.40;99.90;;;;;;5086331;28;20206;-64
2023/11/30 04:33:45;;;;;;;7.03;6.00;;;-1.40;99.90;;;;;;5085977;28;20246;-64
2023/11/30 04:36:14;;;;;;;7.70;7.00;;;-1.40;99.90;;;;;;5086199;28;20210;-64
2023/11/30 04:38:41;;;;;;;8.73;7.83;;;-1.40;99.90;;;;;;5085547;28;20680;-64
2023/11/30 04:41:09;;;;;;;10.57;8.73;;;-1.40;99.90;;;;;;5086249;28;20346;-64
2023/11/30 04:43:37;;;;;;;15.13;10.90;;;-1.50;99.90;;;;;;5085848;28;20658;-64
2023/11/30 04:46:04;;;;;;;19.47;13.37;;;-1.50;99.90;;;;;;5086567;28;20210;-64
2023/11/30 04:48:30;;;;;;;18.03;12.80;;;-1.50;99.90;;;;;;5086309;28;20314;-64
2023/11/30 04:50:57;;;;;;;13.37;9.40;;;-1.60;99.90;;;;;;5086341;28;20750;-64
2023/11/30 04:53:24;;;;;;;10.53;7.97;;;-1.60;99.90;;;;;;5085861;28;20222;-64
2023/11/30 04:55:51;;;;;;;10.70;8.20;;;-1.50;99.90;;;;;;5085506;28;20233;-64
2023/11/30 04:58:19;;;;;;;8.37;7.40;;;-1.60;99.90;;;;;;5085352;28;20363;-64
2023/11/30 05:00:47;;;;;;;10.70;7.90;;;-1.60;99.90;;;;;;5085873;28;20676;-64
2023/11/30 05:03:14;;;;;;;9.53;7.93;;;-1.50;99.90;;;;;;5085847;28;20202;-64
2023/11/30 05:05:41;;;;;;;8.73;7.47;;;-1.50;99.90;;;;;;5085785;28;20300;-64
2023/11/30 05:08:08;;;;;;;7.10;6.43;;;-1.60;99.90;;;;;;5046967;28;1102283;-64
2023/11/30 05:10:35;;;;;;;7.10;6.33;;;-1.60;99.90;;;;;;5086429;28;20209;-64
2023/11/30 05:13:02;;;;;;;9.13;7.87;;;-1.70;99.90;;;;;;5085796;28;20799;-64
2023/11/30 05:15:30;;;;;;;11.23;8.73;;;-1.70;99.90;;;;;;5086536;28;20217;-64
2023/11/30 05:17:57;;;;;;;8.13;7.10;;;-1.70;99.90;;;;;;5086520;28;20301;-64
2023/11/30 05:20:24;;;;;;;7.83;6.97;;;-1.80;99.90;;;;;;5086446;28;20331;-64
2023/11/30 05:22:50;;;;;;;8.33;7.13;;;-1.80;99.90;;;;;;5085749;28;20209;-64
2023/11/30 05:25:17;;;;;;;14.90;8.97;;;-1.90;99.90;;;;;;5086663;28;20289;-64
2023/11/30 05:27:44;;;;;;;13.63;10.00;;;-1.80;99.90;;;;;;5086230;28;20321;-64
2023/11/30 05:30:12;;;;;;;10.20;8.53;;;-1.80;99.90;;;;;;5086581;28;20289;-64
2023/11/30 05:32:40;;;;;;;9.07;7.60;;;-1.70;99.90;;;;;;5085939;28;20294;-64
2023/11/30 05:35:08;;;;;;;10.73;8.60;;;-1.70;99.90;;;;;;5086146;28;20211;-64
2023/11/30 05:37:35;;;;;;;8.87;7.97;;;-1.70;99.90;;;;;;5086027;28;20654;-64
2023/11/30 05:40:04;;;;;;;10.97;8.80;;;-1.70;99.90;;;;;;5086351;28;20262;-64
2023/11/30 05:42:31;;;;;;;14.73;8.77;;;-1.60;99.90;;;;;;5085789;28;20205;-64
2023/11/30 05:44:58;;;;;;;10.07;8.83;;;-1.60;99.90;;;;;;5085979;28;20213;-64
2023/11/30 05:47:25;;;;;;;11.50;9.30;;;-1.60;99.90;;;;;;5085994;28;21068;-64
2023/11/30 05:49:55;;;;;;;11.77;9.97;;;-1.60;99.90;;;;;;5086191;28;20294;-64
2023/11/30 05:52:22;;;;;;;8.57;7.73;;;-1.60;99.90;;;;;;5086136;28;20214;-63
2023/11/30 05:54:49;;;;;;;7.97;6.83;;;-1.60;99.90;;;;;;5086073;28;20237;-64
2023/11/30 05:57:16;;;;;;;7.83;6.67;;;-1.50;99.90;;;;;;5085900;28;20343;-64
2023/11/30 05:59:43;;;;;;;8.60;7.23;;;-1.60;99.90;;;;;;5086279;28;20207;-64
2023/11/30 06:02:10;;;;;;;10.33;8.80;;;-1.60;99.90;;;;;;5065169;28;20329;-64
2023/11/30 06:04:38;;;;;;;16.17;13.20;;;-1.60;99.90;;;;;;5065848;28;20261;-64
2023/11/30 06:07:07;;;;;;;11.03;9.13;;;-1.50;99.90;;;;;;5065205;28;20211;-64
2023/11/30 06:09:34;;;;;;;8.83;7.03;;;-1.50;99.90;;;;;;5088556;28;20325;-64
2023/11/30 06:12:01;;;;;;;8.67;7.70;;;-1.60;99.90;;;;;;5089347;28;20739;-64
2023/11/30 06:14:28;;;;;;;9.13;7.40;;;-1.50;99.90;;;;;;5089356;28;20290;-64
2023/11/30 06:16:54;;;;;;;7.63;6.83;;;-1.50;99.90;;;;;;5089056;28;20736;-64
2023/11/30 06:19:21;;;;;;;7.33;6.47;;;-1.50;99.90;;;;;;5089732;28;20234;-64
2023/11/30 06:21:48;;;;;;;8.37;7.13;;;-1.40;99.90;;;;;;5089240;28;20325;-64
2023/11/30 06:24:16;;;;;;;7.07;6.27;;;-1.40;99.90;;;;;;5089377;28;20290;-64
2023/11/30 06:26:43;;;;;;;8.30;7.20;;;-1.40;99.90;;;;;;5089285;28;20300;-64
2023/11/30 06:29:11;;;;;;;12.53;8.70;;;-1.40;99.90;;;;;;5089237;28;20249;-64
2023/11/30 06:31:38;;;;;;;9.27;7.00;;;-1.40;99.90;;;;;;5089222;28;20210;-64
2023/11/30 06:34:05;;;;;;;9.17;7.63;;;-1.40;99.90;;;;;;5088754;28;20687;-64
2023/11/30 06:36:32;;;;;;;8.53;7.20;;;-1.40;99.90;;;;;;5089463;28;20290;-64
2023/11/30 06:38:58;;;;;;;8.43;7.23;;;-1.40;99.90;;;;;;5088640;28;20313;-64
2023/11/30 06:41:27;;;;;;;10.97;8.37;;;-1.30;99.90;;;;;;5089106;28;20772;-64
2023/11/30 06:43:54;;;;;;;8.33;7.10;;;-1.30;99.90;;;;;;5089387;28;20214;-64
2023/11/30 06:46:21;;;;;;;8.17;7.37;;;-1.30;99.90;;;;;;5088547;28;20306;-64
2023/11/30 06:48:48;;;;;;;9.40;7.10;;;-1.30;99.90;;;;;;5088867;28;20203;-63
2023/11/30 06:51:15;;;;;;;7.80;6.90;;;-1.30;99.90;;;;;;5089275;28;20285;-64
2023/11/30 06:53:42;;;;;;;10.07;7.50;;;-1.30;99.90;;;;;;5088627;28;20203;-64
2023/11/30 06:56:11;;;;;;;9.03;7.37;;;-1.20;99.90;;;;;;5089029;28;20202;-64
2023/11/30 06:58:40;;;;;;;8.97;7.70;;;-1.10;99.90;;;;;;5088685;28;20221;-64
2023/11/30 07:01:07;;;;;;;9.97;8.70;;;-1.10;99.90;;;;;;5088577;28;20231;-64
2023/11/30 07:03:34;;;;;;;15.90;10.47;;;-1.00;99.90;;;;;;5088200;28;20795;-64
2023/11/30 07:06:01;;;;;;;16.53;11.30;;;-1.00;99.90;;;;;;5088807;28;20287;-64
2023/11/30 07:08:28;;;;;;;14.03;10.53;;;-1.10;99.90;;;;;;5087977;28;20273;-64
2023/11/30 07:10:55;;;;;;;13.53;9.20;;;-1.10;99.90;;;;;;5088537;28;20294;-64
2023/11/30 07:13:22;;;;;;;11.73;8.90;;;-1.10;99.90;;;;;;5088792;28;20206;-64
2023/11/30 07:15:50;;;;;;;10.80;8.37;;;-1.10;99.90;;;;;;5088260;28;20231;-64
2023/11/30 07:18:18;;;;;;;9.93;8.03;;;-1.10;99.90;;;;;;5088238;28;20302;-64
2023/11/30 07:20:45;;;;;;;10.37;7.97;;;-1.10;99.90;;;;;;5087411;28;20210;-64
2023/11/30 07:23:12;;;;;;;8.27;7.23;;;-1.00;99.90;;;;;;5088013;28;20250;-64
2023/11/30 07:25:39;;;;;;;9.23;6.93;;;-1.00;99.90;;;;;;5088383;28;20305;-64
2023/11/30 07:28:06;;;;;;;8.13;7.17;;;-1.00;99.90;;;;;;5088364;28;20294;-64
2023/11/30 07:30:32;;;;;;;9.43;7.43;;;-1.00;99.90;;;;;;5087814;28;20234;-64
2023/11/30 07:33:01;;;;;;;8.33;7.20;;;-1.00;99.90;;;;;;5087687;28;20289;-64
2023/11/30 07:35:27;;;;;;;9.97;8.00;;;-1.00;99.90;;;;;;5088180;28;20646;-64
2023/11/30 07:37:55;;;;;;;9.47;8.27;;;-1.00;99.90;;;;;;5087806;28;20290;-64
2023/11/30 07:40:22;;;;;;;8.97;7.70;;;-1.00;99.90;;;;;;5087914;28;20254;-64
2023/11/30 07:42:49;;;;;;;8.43;7.27;;;-0.90;99.90;;;;;;5087751;28;20527;-64
2023/11/30 07:45:16;;;;;;;8.40;7.50;;;-0.90;99.90;;;;;;5087441;28;20211;-64
2023/11/30 07:47:43;;;;;;;8.43;6.90;;;-0.90;99.90;;;;;;5087899;28;20282;-64
2023/11/30 07:50:15;;;;;;;8.03;7.10;;;-0.90;99.90;;;;;;5087988;28;20297;-64
2023/11/30 07:52:42;;;;;;;9.10;7.03;;;-0.90;99.90;;;;;;5087581;28;20673;-64
2023/11/30 07:55:10;;;;;;;7.87;7.00;;;-0.80;99.90;;;;;;5087869;28;20646;-64
2023/11/30 07:57:38;;;;;;;8.30;7.23;;;-0.80;99.90;;;;;;5087930;28;20282;-64
2023/11/30 08:00:08;;;;;;;8.53;6.60;;;-0.80;99.90;;;;;;5087256;28;20209;-64
2023/11/30 08:02:35;;;;;;;7.53;6.60;;;-0.80;99.90;;;;;;5087123;28;20234;-64
2023/11/30 08:05:04;;;;;;;9.07;7.13;;;-0.80;99.90;;;;;;5087750;28;20210;-64
2023/11/30 08:07:34;;;;;;;7.80;6.57;;;-0.80;99.90;;;;;;5086567;28;20218;-64
2023/11/30 08:10:01;;;;;;;8.43;6.80;;;-0.70;99.90;;;;;;5087550;28;20246;-64
2023/11/30 08:12:28;;;;;;;8.33;7.43;;;-0.80;99.90;;;;;;5087200;28;20740;-64
2023/11/30 08:14:55;;;;;;;8.60;7.27;;;-0.80;99.90;;;;;;5087124;28;20286;-64
2023/11/30 08:17:21;;;;;;;9.60;7.47;;;-0.80;99.90;;;;;;5087172;28;20813;-64
2023/11/30 08:19:48;;;;;;;8.37;7.10;;;-0.80;99.90;;;;;;5087506;28;20217;-64
2023/11/30 08:22:15;;;;;;;7.13;6.43;;;-0.80;99.90;;;;;;5086979;28;20317;-64
2023/11/30 08:24:44;;;;;;;8.10;7.30;;;-0.70;99.90;;;;;;5087167;28;20657;-64
2023/11/30 08:27:11;;;;;;;9.57;7.23;;;-0.70;99.90;;;;;;5087152;28;20245;-64
2023/11/30 08:29:38;;;;;;;8.87;7.40;;;-0.70;99.90;;;;;;5087081;28;20207;-64
2023/11/30 08:32:06;;;;;;;9.37;7.37;;;-0.70;99.90;;;;;;5087149;28;20203;-64
2023/11/30 08:34:33;;;;;;;8.03;6.77;;;-0.70;99.90;;;;;;5087166;28;20290;-64
2023/11/30 08:37:00;;;;;;;7.43;6.53;;;-0.70;99.90;;;;;;5086996;28;20206;-64
2023/11/30 08:39:28;;;;;;;8.80;7.43;;;-0.70;99.90;;;;;;5086964;28;20226;-64
2023/11/30 08:41:57;;;;;;;7.80;6.60;;;-0.60;99.90;;;;;;5087005;28;20227;-64
2023/11/30 08:44:24;;;;;;;7.87;6.77;;;-0.60;99.90;;;;;;5087073;28;20207;-65
2023/11/30 08:46:51;;;;;;;8.30;7.40;;;-0.50;99.90;;;;;;5086536;28;20203;-64
2023/11/30 08:49:18;;;;;;;8.37;6.83;;;-0.50;99.90;;;;;;5086786;28;20302;-64
2023/11/30 08:51:45;;;;;;;8.17;6.87;;;-0.50;99.90;;;;;;5086625;28;20296;-64
2023/11/30 08:54:12;;;;;;;10.90;7.33;;;-0.50;99.90;;;;;;5086780;28;20246;-64
2023/11/30 08:56:39;;;;;;;9.27;6.70;;;-0.50;99.90;;;;;;5086732;28;20997;-64
2023/11/30 08:59:07;;;;;;;9.93;7.03;;;-0.50;99.90;;;;;;5086613;28;20297;-64
2023/11/30 09:01:36;;;;;;;7.70;6.90;;;-0.50;99.90;;;;;;5086662;28;20317;-64
2023/11/30 09:04:04;;;;;;;7.80;6.93;;;-0.50;99.90;;;;;;5086581;28;20209;-64
2023/11/30 09:06:32;;;;;;;8.30;6.70;;;-0.40;99.90;;;;;;5087002;28;20203;-64
2023/11/30 09:08:59;;;;;;;8.80;7.13;;;-0.40;99.90;;;;;;5086306;28;20258;-64
2023/11/30 09:11:29;;;;;;;8.70;7.00;;;-0.30;99.90;;;;;;5086512;28;20256;-64
2023/11/30 09:13:57;;;;;;;8.93;6.80;;;-0.30;99.90;;;;;;5086781;28;20661;-64
2023/11/30 09:16:26;;;;;;;10.27;6.93;;;-0.30;99.90;;;;;;5086983;28;20297;-64
2023/11/30 09:18:54;;;;;;;7.30;6.60;;;-0.20;99.90;;;;;;5086963;28;20206;-64
2023/11/30 09:21:21;;;;;;;9.03;7.60;;;-0.20;99.90;;;;;;5086541;28;20661;-64
2023/11/30 09:23:48;;;;;;;17.83;13.53;;;-0.20;99.90;;;;;;5086063;28;20718;-64
2023/11/30 09:26:14;;;;;;;12.17;9.07;;;-0.10;99.90;;;;;;5086739;28;20206;-64
2023/11/30 09:28:41;;;;;;;10.23;8.13;;;-0.20;99.90;;;;;;5086602;28;20289;-64
2023/11/30 09:31:08;;;;;;;10.13;8.20;;;-0.20;99.90;;;;;;5086374;28;20294;-64
2023/11/30 09:33:37;;;;;;;11.07;8.37;;;-0.10;99.90;;;;;;5086369;28;20294;-64
2023/11/30 09:36:04;;;;;;;9.20;8.13;;;-0.10;99.90;;;;;;5086692;28;20294;-64
2023/11/30 09:38:31;;;;;;;11.70;8.43;;;-0.10;99.90;;;;;;5086177;28;20270;-64
2023/11/30 09:41:00;;;;;;;9.83;8.13;;;-0.10;99.90;;;;;;5086723;28;20218;-64
2023/11/30 09:43:27;;;;;;;9.97;7.73;;;-0.10;99.90;;;;;;5088045;28;20270;-64
2023/11/30 09:45:54;;;;;;;9.83;8.03;;;-0.10;99.90;;;;;;5090495;28;20276;-64
2023/11/30 09:48:21;;;;;;;9.37;7.70;;;-0.10;99.90;;;;;;5090300;28;20302;-64
2023/11/30 09:50:50;;;;;;;9.63;7.87;;;0.00;99.90;;;;;;5090341;28;20230;-64
2023/11/30 09:53:16;;;;;;;11.10;8.47;;;-0.10;99.90;;;;;;5089571;28;20749;-64
2023/11/30 09:55:43;;;;;;;9.50;8.03;;;0.00;99.90;;;;;;5089986;28;20322;-64
2023/11/30 09:58:10;;;;;;;12.30;7.80;;;0.00;99.90;;;;;;5089813;28;20297;-64
2023/11/30 10:00:37;;;;;;;11.30;8.70;;;0.00;99.90;;;;;;5089969;28;20214;-64
2023/11/30 10:03:05;;;;;;;12.03;7.70;;;0.00;99.90;;;;;;5090084;28;20242;-64
2023/11/30 10:05:32;;;;;;;9.50;8.13;;;0.00;99.90;;;;;;5090064;28;20580;-64
2023/11/30 10:08:01;;;;;;;9.90;8.63;;;0.00;99.90;;;;;;5089614;28;20740;-64
2023/11/30 10:10:28;;;;;;;10.37;8.00;;;0.00;99.90;;;;;;5089596;28;20256;-64
2023/11/30 10:12:55;;;;;;;10.13;8.00;;;0.10;99.90;;;;;;5089557;28;20271;-64
2023/11/30 10:15:22;;;;;;;9.97;8.23;;;0.10;99.90;;;;;;5089323;28;20245;-64
2023/11/30 10:17:49;;;;;;;10.10;8.10;;;0.10;99.90;;;;;;5089160;28;20217;-64
2023/11/30 10:20:16;;;;;;;10.77;9.30;;;0.20;99.90;;;;;;5089448;28;20221;-64
2023/11/30 10:22:43;;;;;;;9.73;8.60;;;0.20;99.90;;;;;;5088871;28;20230;-64
2023/11/30 10:25:12;;;;;;;8.93;7.93;;;0.20;99.90;;;;;;5089384;28;20209;-64
2023/11/30 10:27:41;;;;;;;9.90;7.97;;;0.30;99.90;;;;;;5088918;28;20210;-64
2023/11/30 10:30:10;;;;;;;11.33;8.23;;;0.30;99.90;;;;;;5088865;28;21109;-64
2023/11/30 10:32:39;;;;;;;9.33;7.80;;;0.40;99.90;;;;;;5089099;28;20322;-64
2023/11/30 10:35:11;;;;;;;11.60;8.93;;;0.40;99.90;;;;;;5089553;28;20293;-64
2023/11/30 10:37:44;;;;;;;11.33;8.47;;;0.50;99.90;;;;;;5088670;28;20191;-64
2023/11/30 10:40:14;;;;;;;9.93;8.70;;;0.60;99.90;;;;;;5089210;28;20265;-64
2023/11/30 10:42:42;;;;;;;11.50;9.10;;;0.70;99.90;;;;;;5088843;28;20684;-64
2023/11/30 10:45:11;;;;;;;10.60;8.63;;;0.80;99.90;;;;;;5089269;28;20203;-64
2023/11/30 10:47:39;;;;;;;10.63;8.70;;;0.90;99.90;;;;;;5089059;28;20406;-64
2023/11/30 10:50:09;;;;;;;10.20;8.80;;;1.00;99.90;;;;;;5088901;28;20217;-64
2023/11/30 10:52:36;;;;;;;11.67;8.93;;;1.10;99.90;;;;;;5088695;28;20207;-64
2023/11/30 10:55:09;;;;;;;10.97;8.70;;;1.30;99.90;;;;;;5089027;28;20634;-64
2023/11/30 10:57:41;;;;;;;9.57;7.87;;;1.50;99.90;;;;;;5088834;28;20210;-64
2023/11/30 11:00:12;;;;;;;9.00;8.10;;;1.70;99.90;;;;;;5089198;28;20187;-64
2023/11/30 11:02:41;;;;;;;9.17;8.17;;;1.90;99.90;;;;;;5088827;28;20221;-64
2023/11/30 11:05:09;;;;;;;9.37;7.73;;;2.00;99.90;;;;;;5089002;28;20302;-64
2023/11/30 11:07:37;;;;;;;7.87;6.30;;;2.10;99.90;;;;;;5088328;28;20215;-64
2023/11/30 11:10:06;;;;;;;8.43;7.63;;;2.20;99.90;;;;;;5089168;28;20195;-64
2023/11/30 11:12:37;;;;;;;9.63;8.40;;;2.40;99.90;;;;;;5088294;28;20285;-64
2023/11/30 11:15:11;;;;;;;11.33;8.87;;;2.50;99.90;;;;;;5088546;28;20225;-64
2023/11/30 11:17:47;;;;;;;9.73;8.73;;;2.60;99.90;;;;;;5088573;28;20248;-64
2023/11/30 11:20:20;;;;;;;9.23;7.93;;;2.60;99.90;;;;;;5088555;28;20283;-64
2023/11/30 11:22:48;;;;;;;12.07;8.37;;;2.50;99.90;;;;;;5088263;28;20221;-64
2023/11/30 11:25:17;;;;;;;8.27;6.53;;;2.30;99.90;;;;;;5088213;28;20242;-64
2023/11/30 11:27:45;;;;;;;8.57;7.17;;;2.10;99.90;;;;;;5087940;28;20261;-64
2023/11/30 11:30:14;;;;;;;7.97;7.10;;;2.00;99.90;;;;;;5088479;28;20290;-64
2023/11/30 11:32:42;;;;;;;7.93;7.23;;;2.00;99.90;;;;;;5088424;28;20290;-64
2023/11/30 11:35:10;;;;;;;9.23;7.60;;;2.00;99.90;;;;;;5088079;28;20212;-64
2023/11/30 11:37:37;;;;;;;8.07;7.27;;;2.10;99.90;;;;;;5087776;28;20748;-64
2023/11/30 11:40:04;;;;;;;8.43;7.30;;;2.30;99.90;;;;;;5088052;28;20313;-64
2023/11/30 11:42:32;;;;;;;7.80;7.03;;;2.40;99.90;;;;;;5087691;28;21080;-64
2023/11/30 11:45:02;;;;;;;7.67;6.23;;;2.60;99.90;;;;;;5088201;28;20203;-64
2023/11/30 11:47:30;;;;;;;8.10;6.23;;;2.70;99.90;;;;;;5088513;28;20198;-64
2023/11/30 11:49:57;;;;;;;6.50;5.87;;;2.70;99.90;;;;;;5088266;28;20234;-64
2023/11/30 11:52:25;;;;;;;6.47;5.87;;;2.80;99.90;;;;;;5087793;28;20304;-64
2023/11/30 11:55:04;;;;;;;5.77;5.33;;;2.80;99.90;;;;;;5087671;28;20228;-64
2023/11/30 11:57:33;;;;;;;6.60;5.90;;;2.90;99.90;;;;;;5087764;28;20190;-64
2023/11/30 12:00:00;;;;;;;7.33;6.63;;;2.90;99.90;;;;;;5087866;28;20301;-64
2023/11/30 12:02:29;;;;;;;6.53;5.83;;;2.90;99.90;;;;;;5087640;28;20233;-64
2023/11/30 12:05:11;;;;;;;7.30;6.13;;;2.90;99.90;;;;;;5088082;28;20293;-64
2023/11/30 12:07:48;;;;;;;7.73;5.77;;;2.90;99.90;;;;;;5086829;28;20329;-64
2023/11/30 12:10:29;;;;;;;6.70;5.93;;;3.00;99.90;;;;;;5087298;28;20190;-64
2023/11/30 12:12:57;;;;;;;6.50;5.90;;;3.00;99.90;;;;;;5087807;28;20187;-64
2023/11/30 12:15:24;;;;;;;5.80;5.27;;;3.10;99.90;;;;;;5087314;28;20213;-64
2023/11/30 12:17:51;;;;;;;6.50;5.83;;;3.20;99.90;;;;;;5087436;28;20207;-64
2023/11/30 12:20:20;;;;;;;5.40;4.90;;;3.30;99.90;;;;;;5087646;28;20207;-64
2023/11/30 12:22:47;;;;;;;6.40;5.80;;;3.50;99.90;;;;;;5087173;28;20230;-64
2023/11/30 12:25:14;;;;;;;6.43;5.53;;;3.60;99.90;;;;;;5087633;28;20285;-64
2023/11/30 12:27:41;;;;;;;6.40;5.83;;;3.60;99.90;;;;;;5087397;28;20246;-64
2023/11/30 12:30:09;;;;;;;5.60;5.10;;;3.60;99.90;;;;;;5087049;28;20207;-64
2023/11/30 12:32:37;;;;;;;6.17;5.57;;;3.60;99.90;;;;;;5087239;28;20230;-64
2023/11/30 12:35:04;;;;;;;8.47;5.90;;;3.70;99.90;;;;;;5087487;28;20242;-64
2023/11/30 12:37:33;;;;;;;7.03;6.33;;;3.70;99.90;;;;;;5086606;28;20271;-64
2023/11/30 12:40:00;;;;;;;6.63;5.57;;;3.70;99.90;;;;;;5087175;28;20230;-64
2023/11/30 12:42:27;;;;;;;7.03;6.17;;;3.80;99.90;;;;;;5086980;28;20297;-64
2023/11/30 12:44:54;;;;;;;8.10;6.50;;;3.70;99.90;;;;;;5086684;28;20804;-64
2023/11/30 12:47:22;;;;;;;6.97;5.60;;;3.70;99.90;;;;;;5086967;28;20294;-64
2023/11/30 12:49:49;;;;;;;6.57;5.97;;;3.50;99.90;;;;;;5087069;28;20293;-64